createdAt,value
2023-04-05T00:02:44.652Z,78.70
2023-04-05T00:05:49.855Z,78.90
2023-04-05T00:08:51.506Z,79.00
2023-04-05T00:11:53.086Z,79.00
2023-04-05T00:14:54.660Z,79.10
2023-04-05T00:17:56.324Z,79.30
2023-04-05T00:20:57.896Z,79.40
2023-04-05T00:23:59.936Z,79.40
2023-04-05T00:27:01.591Z,79.80
2023-04-05T00:30:03.291Z,79.40
2023-04-05T00:33:05.582Z,79.90
2023-04-05T00:36:15.224Z,80.00
2023-04-05T00:39:18.409Z,78.50
2023-04-05T00:42:20.245Z,79.90
2023-04-05T00:45:21.832Z,80.50
2023-04-05T00:48:23.948Z,80.40
2023-04-05T00:51:25.830Z,80.30
2023-04-05T00:54:29.506Z,80.20
2023-04-05T00:57:31.513Z,81.20
2023-04-05T01:00:33.448Z,80.70
2023-04-05T01:03:38.885Z,80.80
2023-04-05T01:06:58.483Z,80.90
2023-04-05T01:10:05.466Z,79.00
2023-04-05T01:13:07.121Z,81.20
2023-04-05T01:16:08.683Z,81.20
2023-04-05T01:19:13.186Z,81.70
2023-04-05T01:22:47.744Z,81.70
2023-04-05T01:26:15.815Z,80.50
2023-04-05T01:29:50.352Z,82.00
2023-04-05T01:33:06.875Z,80.50
2023-04-05T01:36:27.150Z,80.20
2023-04-05T01:39:31.004Z,80.00
2023-04-05T01:42:32.647Z,81.50
2023-04-05T01:45:34.196Z,81.10
2023-04-05T01:48:35.796Z,81.80
2023-04-05T01:51:42.051Z,82.00
2023-04-05T01:54:43.972Z,82.40
2023-04-05T01:57:45.731Z,80.80
2023-04-05T02:00:47.307Z,82.30
2023-04-05T02:03:49.013Z,82.70
2023-04-05T02:06:50.804Z,82.60
2023-04-05T02:09:52.328Z,82.60
2023-04-05T02:12:53.925Z,82.70
2023-04-05T02:15:55.544Z,82.20
2023-04-05T02:18:57.970Z,82.70
2023-04-05T02:21:59.582Z,82.40
2023-04-05T02:25:01.608Z,82.30
2023-04-05T02:28:03.192Z,82.40
2023-04-05T02:31:10.649Z,82.50
2023-04-05T02:34:12.197Z,83.10
2023-04-05T02:37:13.768Z,82.60
2023-04-05T02:40:15.608Z,83.20
2023-04-05T02:43:17.387Z,82.80
2023-04-05T02:46:19.031Z,83.60
2023-04-05T02:49:21.357Z,83.60
2023-04-05T02:52:23.473Z,83.30
2023-04-05T02:55:25.088Z,83.30
2023-04-05T02:58:26.628Z,83.20
2023-04-05T03:01:28.278Z,83.50
2023-04-05T03:04:29.868Z,83.30
2023-04-05T03:07:32.891Z,83.60
2023-04-05T03:10:36.607Z,83.50
2023-04-05T03:13:38.530Z,84.10
2023-04-05T03:16:40.377Z,83.90
2023-04-05T03:19:42.544Z,83.90
2023-04-05T03:22:44.668Z,83.80
2023-04-05T03:25:46.232Z,84.20
2023-04-05T03:28:47.852Z,84.10
2023-04-05T03:31:49.730Z,84.70
2023-04-05T03:34:51.366Z,84.20
2023-04-05T03:37:53.072Z,84.70
2023-04-05T03:40:54.714Z,84.50
2023-04-05T03:43:56.254Z,84.30
2023-04-05T03:46:58.117Z,84.50
2023-04-05T03:49:59.673Z,84.60
2023-04-05T03:53:01.434Z,84.40
2023-04-05T03:56:03.128Z,84.80
2023-04-05T03:59:04.717Z,85.40
2023-04-05T04:02:06.292Z,84.70
2023-04-05T04:05:08.064Z,84.80
2023-04-05T04:08:10.021Z,85.00
2023-04-05T04:11:11.799Z,84.70
2023-04-05T04:14:13.341Z,84.80
2023-04-05T04:17:27.191Z,84.70
2023-04-05T04:20:28.973Z,85.80
2023-04-05T04:23:30.534Z,84.80
2023-04-05T04:26:37.426Z,85.10
2023-04-05T04:29:46.458Z,85.10
2023-04-05T04:32:52.554Z,85.40
2023-04-05T04:35:54.674Z,85.80
2023-04-05T04:38:56.520Z,85.20
2023-04-05T04:41:58.546Z,86.00
2023-04-05T04:45:04.235Z,85.60
2023-04-05T04:48:06.180Z,86.50
2023-04-05T04:51:08.374Z,85.70
2023-04-05T04:54:09.919Z,85.90
2023-04-05T04:57:11.468Z,86.20
2023-04-05T05:00:15.285Z,86.20
2023-04-05T05:03:17.171Z,86.50
2023-04-05T05:06:22.087Z,85.80
2023-04-05T05:09:23.737Z,84.90
2023-04-05T05:12:26.697Z,85.90
2023-04-05T05:15:28.223Z,86.20
2023-04-05T05:18:29.844Z,86.10
2023-04-05T05:21:31.424Z,86.70
2023-04-05T05:24:33.021Z,86.20
2023-04-05T05:27:34.733Z,86.20
2023-04-05T05:30:36.351Z,86.40
2023-04-05T05:33:37.940Z,86.20
2023-04-05T05:36:39.480Z,86.30
2023-04-05T05:39:41.035Z,86.50
2023-04-05T05:42:42.649Z,86.30
2023-04-05T05:45:44.211Z,86.30
2023-04-05T05:48:45.940Z,86.40
2023-04-05T05:51:47.468Z,86.60
2023-04-05T05:54:49.142Z,86.60
2023-04-05T05:57:52.766Z,86.80
2023-04-05T06:00:56.374Z,86.90
2023-04-05T06:03:57.977Z,87.20
2023-04-05T06:07:00.556Z,86.80
2023-04-05T06:10:02.119Z,87.90
2023-04-05T06:13:03.786Z,86.70
2023-04-05T06:16:05.738Z,86.40
2023-04-05T06:19:07.310Z,86.90
2023-04-05T06:22:08.901Z,86.80
2023-04-05T06:25:12.280Z,87.10
2023-04-05T06:28:13.826Z,86.60
2023-04-05T06:31:17.218Z,86.60
2023-04-05T06:34:18.889Z,86.50
2023-04-05T06:37:20.658Z,86.40
2023-04-05T06:40:22.272Z,85.50
2023-04-05T06:43:23.833Z,85.30
2023-04-05T06:46:26.366Z,84.50
2023-04-05T06:49:28.034Z,84.20
2023-04-05T06:52:30.296Z,83.50
2023-04-05T06:55:32.537Z,83.20
2023-04-05T06:58:34.244Z,82.60
2023-04-05T07:01:35.857Z,82.40
2023-04-05T07:04:37.572Z,82.30
2023-04-05T07:07:40.871Z,81.80
2023-04-05T07:10:42.628Z,81.80
2023-04-05T07:13:44.551Z,81.30
2023-04-05T07:16:47.930Z,81.80
2023-04-05T07:19:50.445Z,81.10
2023-04-05T07:22:51.997Z,80.90
2023-04-05T07:25:54.396Z,80.50
2023-04-05T07:28:56.023Z,80.40
2023-04-05T07:31:57.563Z,80.10
2023-04-05T07:34:59.149Z,80.10
2023-04-05T07:38:00.722Z,80.20
2023-04-05T07:41:02.295Z,80.30
2023-04-05T07:44:03.985Z,79.10
2023-04-05T07:47:05.569Z,78.50
2023-04-05T07:50:09.515Z,78.90
2023-04-05T07:53:11.191Z,78.70
2023-04-05T07:56:16.189Z,79.00
2023-04-05T07:59:18.119Z,78.00
2023-04-05T08:02:19.716Z,78.40
2023-04-05T08:05:21.375Z,78.80
2023-04-05T08:08:24.894Z,79.00
2023-04-05T08:11:26.493Z,78.80
2023-04-05T08:14:28.344Z,78.50
2023-04-05T08:17:30.266Z,78.40
2023-04-05T08:20:31.974Z,78.40
2023-04-05T08:23:33.593Z,77.80
2023-04-05T08:26:35.197Z,77.40
2023-04-05T08:29:37.404Z,77.30
2023-04-05T08:32:39.052Z,77.70
2023-04-05T08:35:40.951Z,77.40
2023-04-05T08:38:42.604Z,77.70
2023-04-05T08:41:54.727Z,76.60
2023-04-05T08:44:57.957Z,76.80
2023-04-05T08:47:59.578Z,77.00
2023-04-05T08:51:01.166Z,76.90
2023-04-05T08:54:04.793Z,77.00
2023-04-05T08:57:07.503Z,77.10
2023-04-05T09:00:10.386Z,77.00
2023-04-05T09:03:18.303Z,76.70
2023-04-05T09:06:21.332Z,76.80
2023-04-05T09:09:23.314Z,76.60
2023-04-05T09:12:26.558Z,76.80
2023-04-05T09:15:28.172Z,76.60
2023-04-05T09:18:29.899Z,76.30
2023-04-05T09:21:57.421Z,75.80
2023-04-05T09:24:59.025Z,73.40
2023-04-05T09:28:00.779Z,81.70
2023-04-05T09:31:02.335Z,75.40
2023-04-05T09:34:05.358Z,75.10
2023-04-05T09:37:14.512Z,75.10
2023-04-05T09:40:16.088Z,75.00
2023-04-05T09:43:38.274Z,74.60
2023-04-05T09:46:41.769Z,74.70
2023-04-05T09:49:46.305Z,74.40
2023-04-05T09:52:49.128Z,74.40
2023-04-05T09:55:50.676Z,74.30
2023-04-05T09:58:52.806Z,73.70
2023-04-05T10:01:54.367Z,73.20
2023-04-05T10:04:55.953Z,69.50
2023-04-05T10:07:58.064Z,66.60
2023-04-05T10:11:01.421Z,67.30
2023-04-05T10:14:05.901Z,67.80
2023-04-05T10:17:26.035Z,69.00
2023-04-05T10:20:30.617Z,68.00
2023-04-05T10:23:35.490Z,70.80
2023-04-05T10:26:45.529Z,69.80
2023-04-05T10:30:13.221Z,70.70
2023-04-05T10:33:34.888Z,68.40
2023-04-05T10:36:49.564Z,68.40
2023-04-05T10:39:51.499Z,68.20
2023-04-05T10:42:53.203Z,70.50
2023-04-05T10:45:57.148Z,70.10
2023-04-05T10:49:35.154Z,71.00
2023-04-05T10:52:38.362Z,68.20
2023-04-05T10:55:40.204Z,70.10
2023-04-05T10:58:43.457Z,69.60
2023-04-05T11:01:46.359Z,69.40
2023-04-05T11:04:56.069Z,69.70
2023-04-05T11:08:04.605Z,68.90
2023-04-05T11:11:07.060Z,67.20
2023-04-05T11:14:23.470Z,69.10
2023-04-05T11:17:29.131Z,68.90
2023-04-05T11:20:41.614Z,70.30
2023-04-05T11:24:03.682Z,68.80
2023-04-05T11:27:09.639Z,67.00
2023-04-05T11:30:11.569Z,68.60
2023-04-05T11:33:59.995Z,68.30
2023-04-05T11:37:01.589Z,66.20
2023-04-05T11:40:31.031Z,68.40
2023-04-05T11:43:35.080Z,69.10
2023-04-05T11:46:36.719Z,67.80
2023-04-05T11:49:39.278Z,67.80
2023-04-05T11:52:40.840Z,68.80
2023-04-05T11:55:45.103Z,67.90
2023-04-05T11:58:46.858Z,68.20
2023-04-05T12:02:01.670Z,67.70
2023-04-05T12:05:03.489Z,65.30
2023-04-05T12:08:05.191Z,67.40
2023-04-05T12:11:08.974Z,66.20
2023-04-05T12:14:10.617Z,66.40
2023-04-05T12:17:12.192Z,66.50
2023-04-05T12:20:16.339Z,66.70
2023-04-05T12:23:18.194Z,65.80
2023-04-05T12:26:21.177Z,66.80
2023-04-05T12:29:23.210Z,65.80
2023-04-05T12:32:24.906Z,67.40
2023-04-05T12:35:34.826Z,66.10
2023-04-05T12:38:40.539Z,64.10
2023-04-05T12:41:42.314Z,65.10
2023-04-05T12:44:43.876Z,64.90
2023-04-05T12:47:58.542Z,65.00
2023-04-05T12:51:05.011Z,62.90
2023-04-05T12:54:06.613Z,64.30
2023-04-05T12:57:12.097Z,64.80
2023-04-05T13:00:14.267Z,64.80
2023-04-05T13:03:21.049Z,63.80
2023-04-05T13:06:22.970Z,64.20
2023-04-05T13:09:24.568Z,64.20
2023-04-05T13:12:26.117Z,64.10
2023-04-05T13:15:27.682Z,64.20
2023-04-05T13:18:29.747Z,63.10
2023-04-05T13:21:31.344Z,61.80
2023-04-05T13:24:32.871Z,63.80
2023-04-05T13:27:34.502Z,63.40
2023-04-05T13:30:36.200Z,64.90
2023-04-05T13:33:37.786Z,63.40
2023-04-05T13:36:39.345Z,63.10
2023-04-05T13:39:41.142Z,63.50
2023-04-05T13:42:43.054Z,63.40
2023-04-05T13:45:44.606Z,63.10
2023-04-05T13:48:46.143Z,63.60
2023-04-05T13:51:47.805Z,63.10
2023-04-05T13:54:49.383Z,63.80
2023-04-05T13:58:04.392Z,63.30
2023-04-05T14:01:06.017Z,63.60
2023-04-05T14:04:07.584Z,63.90
2023-04-05T14:07:09.510Z,63.60
2023-04-05T14:10:11.581Z,62.40
2023-04-05T14:13:16.131Z,62.60
2023-04-05T14:16:17.772Z,63.40
2023-04-05T14:19:19.556Z,63.80
2023-04-05T14:22:22.165Z,62.60
2023-04-05T14:25:23.733Z,62.90
2023-04-05T14:28:25.284Z,62.00
2023-04-05T14:31:27.139Z,62.10
2023-04-05T14:34:28.764Z,62.30
2023-04-05T14:37:30.531Z,61.60
2023-04-05T14:40:32.132Z,61.60
2023-04-05T14:43:33.802Z,61.00
2023-04-05T14:46:35.467Z,61.10
2023-04-05T14:49:36.964Z,61.30
2023-04-05T14:52:39.842Z,60.90
2023-04-05T14:55:41.389Z,60.70
2023-04-05T14:58:42.924Z,59.20
2023-04-05T15:01:45.539Z,59.80
2023-04-05T15:04:47.154Z,59.40
2023-04-05T15:07:48.743Z,59.00
2023-04-05T15:10:50.362Z,58.60
2023-04-05T15:13:51.937Z,58.10
2023-04-05T15:16:53.553Z,58.00
2023-04-05T15:19:55.201Z,58.50
2023-04-05T15:22:56.863Z,58.40
2023-04-05T15:25:58.466Z,57.90
2023-04-05T15:29:00.322Z,58.00
2023-04-05T15:32:02.918Z,58.00
2023-04-05T15:35:05.119Z,58.00
2023-04-05T15:38:07.141Z,57.80
2023-04-05T15:41:09.083Z,59.40
2023-04-05T15:44:10.734Z,58.10
2023-04-05T15:47:12.273Z,58.40
2023-04-05T15:50:14.059Z,58.60
2023-04-05T15:53:15.633Z,58.30
2023-04-05T15:56:18.057Z,59.00
2023-04-05T15:59:19.682Z,59.50
2023-04-05T16:02:21.273Z,60.20
2023-04-05T16:05:22.815Z,60.80
2023-04-05T16:08:25.152Z,61.90
2023-04-05T16:11:26.806Z,61.70
2023-04-05T16:14:28.402Z,61.30
2023-04-05T16:17:30.438Z,61.60
2023-04-05T16:20:32.053Z,62.00
2023-04-05T16:23:33.793Z,61.90
2023-04-05T16:26:35.820Z,62.00
2023-04-05T16:29:37.652Z,61.10
2023-04-05T16:32:39.327Z,60.80
2023-04-05T16:35:41.268Z,61.70
2023-04-05T16:38:43.773Z,61.80
2023-04-05T16:41:46.179Z,61.80
2023-04-05T16:44:47.904Z,62.30
2023-04-05T16:47:49.538Z,61.80
2023-04-05T16:50:51.596Z,61.90
2023-04-05T16:53:53.524Z,60.20
2023-04-05T16:56:56.260Z,61.50
2023-04-05T16:59:57.796Z,62.60
2023-04-05T17:02:59.610Z,61.40
2023-04-05T17:06:01.672Z,61.40
2023-04-05T17:09:03.720Z,61.70
2023-04-05T17:12:06.104Z,61.70
2023-04-05T17:15:11.459Z,61.80
2023-04-05T17:18:13.063Z,61.80
2023-04-05T17:21:14.655Z,62.40
2023-04-05T17:24:17.577Z,62.60
2023-04-05T17:27:19.140Z,62.70
2023-04-05T17:30:21.000Z,62.90
2023-04-05T17:33:22.650Z,62.70
2023-04-05T17:36:24.218Z,63.10
2023-04-05T17:39:26.212Z,62.50
2023-04-05T17:42:27.814Z,62.80
2023-04-05T17:45:30.487Z,63.00
2023-04-05T17:48:32.860Z,62.90
2023-04-05T17:51:34.648Z,62.90
2023-04-05T17:54:37.071Z,63.20
2023-04-05T17:57:38.709Z,63.10
2023-04-05T18:00:40.431Z,63.00
2023-04-05T18:03:42.714Z,62.90
2023-04-05T18:06:44.284Z,63.40
2023-04-05T18:09:46.338Z,63.50
2023-04-05T18:12:47.888Z,62.10
2023-04-05T18:15:53.680Z,63.40
2023-04-05T18:18:55.354Z,64.20
2023-04-05T18:21:56.895Z,63.70
2023-04-05T18:24:58.430Z,64.40
2023-04-05T18:28:01.306Z,64.40
2023-04-05T18:31:08.918Z,64.60
2023-04-05T18:34:10.459Z,64.50
2023-04-05T18:37:12.426Z,64.40
2023-04-05T18:40:14.431Z,63.90
2023-04-05T18:43:16.191Z,64.60
2023-04-05T18:46:18.199Z,64.80
2023-04-05T18:49:21.135Z,64.90
2023-04-05T18:52:25.812Z,65.20
2023-04-05T18:55:27.512Z,65.00
2023-04-05T18:58:29.093Z,64.60
2023-04-05T19:01:30.780Z,65.00
2023-04-05T19:04:32.478Z,65.00
2023-04-05T19:07:34.060Z,65.20
2023-04-05T19:10:35.659Z,66.30
2023-04-05T19:13:37.309Z,66.60
2023-04-05T19:16:38.903Z,65.60
2023-04-05T19:19:42.250Z,66.00
2023-04-05T19:22:43.803Z,66.40
2023-04-05T19:25:45.593Z,66.20
2023-04-05T19:28:47.239Z,66.60
2023-04-05T19:31:49.755Z,66.60
2023-04-05T19:34:51.434Z,66.90
2023-04-05T19:37:53.109Z,67.40
2023-04-05T19:40:54.805Z,67.60
2023-04-05T19:43:56.331Z,67.40
2023-04-05T19:46:58.255Z,68.10
2023-04-05T19:50:56.746Z,66.60
2023-04-05T19:53:53.945Z,66.80
2023-04-05T19:57:25.191Z,69.20
2023-04-05T20:01:13.781Z,69.90
2023-04-05T20:04:18.776Z,70.70
2023-04-05T20:07:47.773Z,71.40
2023-04-05T20:15:00.278Z,67.10
2023-04-05T20:18:19.904Z,71.00
2023-04-05T20:21:23.836Z,70.00
2023-04-05T20:24:48.597Z,69.40
2023-04-05T20:28:22.716Z,67.90
2023-04-05T20:31:28.807Z,68.60
2023-04-05T20:34:36.217Z,69.60
2023-04-05T20:37:37.760Z,70.10
2023-04-05T20:40:39.329Z,69.60
2023-04-05T20:43:41.793Z,70.00
2023-04-05T20:46:43.406Z,69.90
2023-04-05T20:49:47.444Z,70.00
2023-04-05T20:52:49.008Z,70.10
2023-04-05T20:55:51.130Z,69.80
2023-04-05T20:58:54.428Z,70.20
2023-04-05T21:01:56.055Z,70.70
2023-04-05T21:04:58.093Z,70.50
2023-04-05T21:07:59.848Z,71.00
2023-04-05T21:11:01.673Z,70.80
2023-04-05T21:14:03.358Z,70.80
2023-04-05T21:17:04.939Z,71.20
2023-04-05T21:20:07.033Z,71.20
2023-04-05T21:23:08.598Z,70.40
2023-04-05T21:26:10.249Z,70.80
2023-04-05T21:29:11.893Z,71.30
2023-04-05T21:32:13.521Z,71.20
2023-04-05T21:35:15.140Z,71.10
2023-04-05T21:38:16.706Z,71.00
2023-04-05T21:41:18.310Z,71.30
2023-04-05T21:44:19.895Z,71.20
2023-04-05T21:47:21.490Z,70.70
2023-04-05T21:50:23.324Z,71.20
2023-04-05T21:53:25.459Z,70.70
2023-04-05T21:56:27.163Z,70.60
2023-04-05T21:59:28.796Z,70.70
2023-04-05T22:02:30.424Z,70.60
2023-04-05T22:05:38.188Z,70.80
2023-04-05T22:08:40.584Z,71.50
2023-04-05T22:11:43.685Z,71.10
2023-04-05T22:14:45.235Z,71.00
2023-04-05T22:17:47.135Z,71.00
2023-04-05T22:20:48.745Z,70.80
2023-04-05T22:23:50.449Z,71.00
2023-04-05T22:26:53.283Z,70.70
2023-04-05T22:29:55.057Z,71.10
2023-04-05T22:32:56.865Z,71.80
2023-04-05T22:35:58.628Z,71.10
2023-04-05T22:39:00.218Z,71.40
2023-04-05T22:42:02.197Z,71.40
2023-04-05T22:45:04.758Z,71.70
2023-04-05T22:48:06.512Z,71.80
2023-04-05T22:51:08.296Z,72.20
2023-04-05T22:54:09.852Z,72.10
2023-04-05T22:57:11.754Z,72.30
2023-04-05T23:00:14.719Z,72.50
2023-04-05T23:03:16.291Z,72.40
2023-04-05T23:06:17.840Z,72.70
2023-04-05T23:09:19.509Z,72.70
2023-04-05T23:12:21.131Z,73.00
2023-04-05T23:15:22.767Z,72.90
2023-04-05T23:18:24.382Z,73.10
2023-04-05T23:21:26.373Z,73.50
2023-04-05T23:24:28.159Z,74.40
2023-04-05T23:27:30.034Z,74.20
2023-04-05T23:30:31.610Z,74.50
2023-04-05T23:33:33.150Z,74.60
2023-04-05T23:36:34.678Z,74.60
2023-04-05T23:39:36.279Z,74.60
2023-04-05T23:42:37.831Z,74.50
2023-04-05T23:45:39.372Z,74.50
2023-04-05T23:48:41.287Z,74.30
2023-04-05T23:51:42.992Z,74.30
2023-04-05T23:54:44.526Z,74.50
2023-04-05T23:57:46.256Z,74.50
